DE17H KLAX-KSLC
Flight info
| Callsign | DE17H |
|---|---|
| Flight time | N/A |
| Altitude | 35000 |
| Route | ORCKA5 LAS Q70 BLIPP Q842 WINEN MLF PITTT1 |
| Aircraft | B737/M-SDE2E3FGHIRWXY/LB1 |
Departure
| Time | 2026-04-20 18:54 |
|---|---|
| Airport | Los Angeles International Airport (KLAX) |
Arrival
| Time | N/A |
|---|---|
| Airport | Salt Lake City International Airport (KSLC) |
| Time | Latitude | Longitude | Altitude | Speed | Heading |
|---|---|---|---|---|---|
| 2026-04-20 18:23 | 33.94786 | -118.40177 | 116 ft | 0 kts | 145° |
| 2026-04-20 18:43 | 33.94787 | -118.40178 | 117 ft | 1 kts | 146° |
| 2026-04-20 18:44 | 33.94798 | -118.40188 | 117 ft | 2 kts | 145° |
| 2026-04-20 18:44 | 33.94811 | -118.40198 | 117 ft | 1 kts | 146° |
| 2026-04-20 18:44 | 33.94818 | -118.40204 | 117 ft | 1 kts | 127° |
| 2026-04-20 18:44 | 33.94821 | -118.40217 | 117 ft | 0 kts | 77° |
| 2026-04-20 18:45 | 33.94820 | -118.40221 | 117 ft | 1 kts | 63° |
| 2026-04-20 18:45 | 33.94818 | -118.40226 | 117 ft | 0 kts | 72° |
| 2026-04-20 18:45 | 33.94819 | -118.40226 | 117 ft | 0 kts | 72° |
| 2026-04-20 18:47 | 33.94821 | -118.40220 | 117 ft | 1 kts | 67° |
| 2026-04-20 18:47 | 33.94826 | -118.40196 | 117 ft | 3 kts | 75° |
| 2026-04-20 18:48 | 33.94834 | -118.40162 | 117 ft | 4 kts | 75° |
| 2026-04-20 18:48 | 33.94846 | -118.40112 | 116 ft | 7 kts | 62° |
| 2026-04-20 18:48 | 33.94894 | -118.40084 | 115 ft | 8 kts | 17° |
| 2026-04-20 18:48 | 33.94928 | -118.40022 | 114 ft | 10 kts | 78° |
| 2026-04-20 18:49 | 33.94946 | -118.39941 | 113 ft | 0 kts | 49° |
| 2026-04-20 18:49 | 33.94946 | -118.39940 | 113 ft | 0 kts | 48° |
| 2026-04-20 18:52 | 33.94951 | -118.39935 | 113 ft | 2 kts | 37° |
| 2026-04-20 18:53 | 33.94980 | -118.39922 | 112 ft | 5 kts | 10° |
| 2026-04-20 18:53 | 33.95022 | -118.39933 | 112 ft | 6 kts | 327° |
| 2026-04-20 18:53 | 33.95038 | -118.39976 | 113 ft | 5 kts | 266° |
| 2026-04-20 18:53 | 33.95030 | -118.40063 | 114 ft | 38 kts | 263° |
| 2026-04-20 18:54 | 33.94950 | -118.40758 | 122 ft | 134 kts | 262° |
| 2026-04-20 18:54 | 33.94807 | -118.42242 | 323 ft | 204 kts | 263° |
| 2026-04-20 18:54 | 33.94681 | -118.44032 | 577 ft | 228 kts | 266° |
| 2026-04-20 18:54 | 33.94405 | -118.45910 | 953 ft | 233 kts | 254° |
| 2026-04-20 18:55 | 33.94023 | -118.47796 | 1853 ft | 227 kts | 264° |
| 2026-04-20 18:55 | 33.94151 | -118.49540 | 3023 ft | 211 kts | 288° |
| 2026-04-20 18:55 | 33.94945 | -118.50941 | 4031 ft | 203 kts | 324° |
| 2026-04-20 18:55 | 33.96240 | -118.51322 | 4901 ft | 198 kts | 17° |
| 2026-04-20 18:56 | 33.97067 | -118.50172 | 5687 ft | 198 kts | 96° |
| 2026-04-20 18:56 | 33.96129 | -118.49399 | 6231 ft | 205 kts | 220° |
| 2026-04-20 18:56 | 33.95987 | -118.50906 | 7041 ft | 162 kts | 266° |
| 2026-04-20 18:56 | 33.95992 | -118.51891 | 7333 ft | 135 kts | 277° |
| 2026-04-20 18:57 | 33.96192 | -118.53258 | 6351 ft | 181 kts | 275° |
| 2026-04-20 18:57 | 33.96608 | -118.54634 | 6691 ft | 179 kts | 310° |
| 2026-04-20 18:57 | 33.97670 | -118.55366 | 7169 ft | 180 kts | 357° |
| 2026-04-20 18:57 | 33.98749 | -118.54803 | 7438 ft | 179 kts | 68° |
| 2026-04-20 18:58 | 33.98471 | -118.53569 | 7478 ft | 173 kts | 175° |
| 2026-04-20 18:58 | 33.97523 | -118.54021 | 5104 ft | 203 kts | 247° |
| 2026-04-20 18:58 | 33.97167 | -118.54324 | 32 ft | 12 kts | 306° |
| 2026-04-20 18:58 | 33.97176 | -118.54336 | 5 ft | 11 kts | 321° |